Terminal Aerodrome Forecast
Issued by NWS Upton, NY

Home | Current Version | Previous Version | Text Only | Print | Product List | Glossary On
Versions: 1 2 3 4 5 6 7 8 9 10 11 12 13 14 15 16 17 18 19 20 21 22 23 24 25 26 27 28 29
000
FTUS41 KOKX 042341
TAFEWR
TAF
KEWR 042341Z 0500/0606 28012G19KT P6SM FEW070
     FM050200 29008KT P6SM SCT250
     FM050500 VRB04KT P6SM SCT250
     FM051100 32006KT P6SM SCT250
     FM051400 30011G18KT P6SM SCT040
     FM051700 29013G20KT P6SM SCT050
     FM052000 29016G23KT P6SM SCT050
     FM060200 33009KT P6SM FEW050=

USA.gov is the U.S. government's official web portal to all federal, state and local government web resources and services.